sensor_id;sensor_type;location;lat;lon;timestamp;temperature;humidity
4390;DHT22;2209;48.982;8.406;2023-06-10T00:00:26;25.30;81.10
4390;DHT22;2209;48.982;8.406;2023-06-10T00:02:48;25.30;81.20
4390;DHT22;2209;48.982;8.406;2023-06-10T00:05:10;25.30;81.10
4390;DHT22;2209;48.982;8.406;2023-06-10T00:07:32;25.20;81.00
4390;DHT22;2209;48.982;8.406;2023-06-10T00:09:55;25.20;81.20
4390;DHT22;2209;48.982;8.406;2023-06-10T00:12:18;25.20;81.20
4390;DHT22;2209;48.982;8.406;2023-06-10T00:14:41;25.20;81.20
4390;DHT22;2209;48.982;8.406;2023-06-10T00:17:03;25.10;81.10
4390;DHT22;2209;48.982;8.406;2023-06-10T00:19:25;25.10;80.90
4390;DHT22;2209;48.982;8.406;2023-06-10T00:21:51;25.10;80.80
4390;DHT22;2209;48.982;8.406;2023-06-10T00:24:13;25.20;80.80
4390;DHT22;2209;48.982;8.406;2023-06-10T00:26:36;25.10;80.70
4390;DHT22;2209;48.982;8.406;2023-06-10T00:28:59;25.10;80.90
4390;DHT22;2209;48.982;8.406;2023-06-10T00:31:21;25.10;81.00
4390;DHT22;2209;48.982;8.406;2023-06-10T00:33:43;25.00;80.90
4390;DHT22;2209;48.982;8.406;2023-06-10T00:36:05;25.00;80.70
4390;DHT22;2209;48.982;8.406;2023-06-10T00:38:27;25.00;80.70
4390;DHT22;2209;48.982;8.406;2023-06-10T00:40:49;25.00;80.80
4390;DHT22;2209;48.982;8.406;2023-06-10T00:43:13;25.00;80.70
4390;DHT22;2209;48.982;8.406;2023-06-10T00:45:35;25.00;80.60
4390;DHT22;2209;48.982;8.406;2023-06-10T00:47:58;25.00;80.50
4390;DHT22;2209;48.982;8.406;2023-06-10T00:50:20;25.00;80.50
4390;DHT22;2209;48.982;8.406;2023-06-10T00:52:42;24.90;80.40
4390;DHT22;2209;48.982;8.406;2023-06-10T00:55:06;24.90;80.30
4390;DHT22;2209;48.982;8.406;2023-06-10T00:57:28;24.90;80.20
4390;DHT22;2209;48.982;8.406;2023-06-10T00:59:52;24.90;80.20
4390;DHT22;2209;48.982;8.406;2023-06-10T01:02:14;24.90;80.20
4390;DHT22;2209;48.982;8.406;2023-06-10T01:04:36;24.90;80.30
4390;DHT22;2209;48.982;8.406;2023-06-10T01:07:05;24.90;80.20
4390;DHT22;2209;48.982;8.406;2023-06-10T01:09:37;24.90;80.10
4390;DHT22;2209;48.982;8.406;2023-06-10T01:12:05;24.90;80.10
4390;DHT22;2209;48.982;8.406;2023-06-10T01:14:29;24.90;80.10
4390;DHT22;2209;48.982;8.406;2023-06-10T01:16:54;24.90;80.30
4390;DHT22;2209;48.982;8.406;2023-06-10T01:19:17;24.90;80.30
4390;DHT22;2209;48.982;8.406;2023-06-10T01:21:41;24.80;80.10
4390;DHT22;2209;48.982;8.406;2023-06-10T01:24:03;24.80;80.50
4390;DHT22;2209;48.982;8.406;2023-06-10T01:26:30;24.80;80.10
4390;DHT22;2209;48.982;8.406;2023-06-10T01:28:58;24.80;80.10
4390;DHT22;2209;48.982;8.406;2023-06-10T01:31:28;24.80;80.10
4390;DHT22;2209;48.982;8.406;2023-06-10T01:33:55;24.70;79.80
4390;DHT22;2209;48.982;8.406;2023-06-10T01:36:18;24.70;79.80
4390;DHT22;2209;48.982;8.406;2023-06-10T01:38:43;24.70;79.70
4390;DHT22;2209;48.982;8.406;2023-06-10T01:41:06;24.70;79.80
4390;DHT22;2209;48.982;8.406;2023-06-10T01:43:31;24.70;79.70
4390;DHT22;2209;48.982;8.406;2023-06-10T01:45:54;24.60;79.40
4390;DHT22;2209;48.982;8.406;2023-06-10T01:48:16;24.60;79.30
4390;DHT22;2209;48.982;8.406;2023-06-10T01:50:38;24.60;79.20
4390;DHT22;2209;48.982;8.406;2023-06-10T01:53:00;24.60;79.10
4390;DHT22;2209;48.982;8.406;2023-06-10T01:55:24;24.60;79.10
4390;DHT22;2209;48.982;8.406;2023-06-10T01:57:46;24.60;79.00
4390;DHT22;2209;48.982;8.406;2023-06-10T02:00:09;24.50;78.90
4390;DHT22;2209;48.982;8.406;2023-06-10T02:02:32;24.50;78.90
4390;DHT22;2209;48.982;8.406;2023-06-10T02:04:54;24.50;78.90
4390;DHT22;2209;48.982;8.406;2023-06-10T02:07:16;24.50;79.50
4390;DHT22;2209;48.982;8.406;2023-06-10T02:09:39;24.50;78.80
4390;DHT22;2209;48.982;8.406;2023-06-10T02:12:03;24.50;78.80
4390;DHT22;2209;48.982;8.406;2023-06-10T02:14:26;24.50;78.80
4390;DHT22;2209;48.982;8.406;2023-06-10T02:16:48;24.50;78.70
4390;DHT22;2209;48.982;8.406;2023-06-10T02:19:12;24.50;78.90
4390;DHT22;2209;48.982;8.406;2023-06-10T02:21:34;24.50;78.90
4390;DHT22;2209;48.982;8.406;2023-06-10T02:23:56;24.40;78.90
4390;DHT22;2209;48.982;8.406;2023-06-10T02:26:18;24.40;78.90
4390;DHT22;2209;48.982;8.406;2023-06-10T02:28:44;24.40;78.90
4390;DHT22;2209;48.982;8.406;2023-06-10T02:31:06;24.40;78.90
4390;DHT22;2209;48.982;8.406;2023-06-10T02:33:28;24.40;78.90
4390;DHT22;2209;48.982;8.406;2023-06-10T02:35:50;24.40;78.80
4390;DHT22;2209;48.982;8.406;2023-06-10T02:38:12;24.30;78.50
4390;DHT22;2209;48.982;8.406;2023-06-10T02:40:34;24.30;78.40
4390;DHT22;2209;48.982;8.406;2023-06-10T02:42:56;24.30;78.30
4390;DHT22;2209;48.982;8.406;2023-06-10T02:45:20;24.30;78.10
4390;DHT22;2209;48.982;8.406;2023-06-10T02:47:42;24.30;78.10
4390;DHT22;2209;48.982;8.406;2023-06-10T02:50:04;24.30;78.10
4390;DHT22;2209;48.982;8.406;2023-06-10T02:52:27;24.20;78.00
4390;DHT22;2209;48.982;8.406;2023-06-10T02:54:49;24.20;78.10
4390;DHT22;2209;48.982;8.406;2023-06-10T02:57:11;24.20;78.10
4390;DHT22;2209;48.982;8.406;2023-06-10T02:59:35;24.20;78.10
4390;DHT22;2209;48.982;8.406;2023-06-10T03:01:59;24.10;78.00
4390;DHT22;2209;48.982;8.406;2023-06-10T03:04:22;24.20;78.10
4390;DHT22;2209;48.982;8.406;2023-06-10T03:06:44;24.10;78.00
4390;DHT22;2209;48.982;8.406;2023-06-10T03:09:07;24.10;78.00
4390;DHT22;2209;48.982;8.406;2023-06-10T03:11:30;24.10;78.00
4390;DHT22;2209;48.982;8.406;2023-06-10T03:13:52;24.10;78.10
4390;DHT22;2209;48.982;8.406;2023-06-10T03:16:14;24.10;78.20
4390;DHT22;2209;48.982;8.406;2023-06-10T03:18:38;24.10;78.30
4390;DHT22;2209;48.982;8.406;2023-06-10T03:21:00;24.10;78.50
4390;DHT22;2209;48.982;8.406;2023-06-10T03:23:23;24.10;78.70
4390;DHT22;2209;48.982;8.406;2023-06-10T03:25:46;24.10;78.80
4390;DHT22;2209;48.982;8.406;2023-06-10T03:28:08;24.00;78.80
4390;DHT22;2209;48.982;8.406;2023-06-10T03:30:30;24.00;78.90
4390;DHT22;2209;48.982;8.406;2023-06-10T03:32:52;23.90;78.90
4390;DHT22;2209;48.982;8.406;2023-06-10T03:35:15;23.90;79.10
4390;DHT22;2209;48.982;8.406;2023-06-10T03:37:38;23.90;79.40
4390;DHT22;2209;48.982;8.406;2023-06-10T03:40:00;23.90;79.40
4390;DHT22;2209;48.982;8.406;2023-06-10T03:42:22;23.80;79.40
4390;DHT22;2209;48.982;8.406;2023-06-10T03:44:44;23.80;79.50
4390;DHT22;2209;48.982;8.406;2023-06-10T03:47:06;23.80;79.60
4390;DHT22;2209;48.982;8.406;2023-06-10T03:49:28;23.80;79.60
4390;DHT22;2209;48.982;8.406;2023-06-10T03:51:51;23.80;79.70
4390;DHT22;2209;48.982;8.406;2023-06-10T03:54:14;23.70;79.60
4390;DHT22;2209;48.982;8.406;2023-06-10T03:56:36;23.70;79.70
4390;DHT22;2209;48.982;8.406;2023-06-10T03:58:58;23.70;79.70
4390;DHT22;2209;48.982;8.406;2023-06-10T04:01:20;23.70;79.80
4390;DHT22;2209;48.982;8.406;2023-06-10T04:03:42;23.70;79.80
4390;DHT22;2209;48.982;8.406;2023-06-10T04:06:04;23.70;79.80
4390;DHT22;2209;48.982;8.406;2023-06-10T04:08:28;23.70;80.50
4390;DHT22;2209;48.982;8.406;2023-06-10T04:10:50;23.70;79.80
4390;DHT22;2209;48.982;8.406;2023-06-10T04:13:12;23.70;79.90
4390;DHT22;2209;48.982;8.406;2023-06-10T04:15:35;23.60;80.00
4390;DHT22;2209;48.982;8.406;2023-06-10T04:17:57;23.60;80.20
4390;DHT22;2209;48.982;8.406;2023-06-10T04:20:19;23.60;80.30
4390;DHT22;2209;48.982;8.406;2023-06-10T04:22:41;23.50;81.00
4390;DHT22;2209;48.982;8.406;2023-06-10T04:25:05;23.50;80.20
4390;DHT22;2209;48.982;8.406;2023-06-10T04:27:28;23.50;80.20
4390;DHT22;2209;48.982;8.406;2023-06-10T04:29:51;23.50;80.20
4390;DHT22;2209;48.982;8.406;2023-06-10T04:32:13;23.50;80.30
4390;DHT22;2209;48.982;8.406;2023-06-10T04:34:36;23.50;80.40
4390;DHT22;2209;48.982;8.406;2023-06-10T04:36:59;23.50;80.30
4390;DHT22;2209;48.982;8.406;2023-06-10T04:39:22;23.40;80.10
4390;DHT22;2209;48.982;8.406;2023-06-10T04:41:46;23.40;80.10
4390;DHT22;2209;48.982;8.406;2023-06-10T04:44:08;23.40;80.20
4390;DHT22;2209;48.982;8.406;2023-06-10T04:46:31;23.40;80.50
4390;DHT22;2209;48.982;8.406;2023-06-10T04:48:53;23.40;80.80
4390;DHT22;2209;48.982;8.406;2023-06-10T04:51:16;23.40;80.80
4390;DHT22;2209;48.982;8.406;2023-06-10T04:53:38;23.40;80.90
4390;DHT22;2209;48.982;8.406;2023-06-10T04:56:00;23.30;80.90
4390;DHT22;2209;48.982;8.406;2023-06-10T04:58:23;23.30;81.20
4390;DHT22;2209;48.982;8.406;2023-06-10T05:00:45;23.30;81.50
4390;DHT22;2209;48.982;8.406;2023-06-10T05:03:08;23.30;81.70
4390;DHT22;2209;48.982;8.406;2023-06-10T05:05:30;23.30;81.60
4390;DHT22;2209;48.982;8.406;2023-06-10T05:07:52;23.30;81.70
4390;DHT22;2209;48.982;8.406;2023-06-10T05:10:14;23.30;81.70
4390;DHT22;2209;48.982;8.406;2023-06-10T05:12:36;23.30;81.80
4390;DHT22;2209;48.982;8.406;2023-06-10T05:15:00;23.30;81.90
4390;DHT22;2209;48.982;8.406;2023-06-10T05:17:22;23.30;82.00
4390;DHT22;2209;48.982;8.406;2023-06-10T05:19:46;23.30;82.00
4390;DHT22;2209;48.982;8.406;2023-06-10T05:22:08;23.30;82.00
4390;DHT22;2209;48.982;8.406;2023-06-10T05:24:30;23.30;82.10
4390;DHT22;2209;48.982;8.406;2023-06-10T05:26:52;23.30;82.90
4390;DHT22;2209;48.982;8.406;2023-06-10T05:29:14;23.30;82.30
4390;DHT22;2209;48.982;8.406;2023-06-10T05:31:38;23.30;82.30
4390;DHT22;2209;48.982;8.406;2023-06-10T05:34:00;23.30;82.40
4390;DHT22;2209;48.982;8.406;2023-06-10T05:36:22;23.20;82.40
4390;DHT22;2209;48.982;8.406;2023-06-10T05:38:46;23.20;82.40
4390;DHT22;2209;48.982;8.406;2023-06-10T05:41:08;23.20;82.50
4390;DHT22;2209;48.982;8.406;2023-06-10T05:43:30;23.20;82.60
4390;DHT22;2209;48.982;8.406;2023-06-10T05:45:52;23.10;82.70
4390;DHT22;2209;48.982;8.406;2023-06-10T05:48:16;23.10;82.90
4390;DHT22;2209;48.982;8.406;2023-06-10T05:50:39;23.10;82.90
4390;DHT22;2209;48.982;8.406;2023-06-10T05:53:03;23.10;83.10
4390;DHT22;2209;48.982;8.406;2023-06-10T05:55:25;23.10;83.20
4390;DHT22;2209;48.982;8.406;2023-06-10T05:57:47;23.20;83.40
4390;DHT22;2209;48.982;8.406;2023-06-10T06:00:10;23.10;83.40
4390;DHT22;2209;48.982;8.406;2023-06-10T06:02:32;23.10;83.60
4390;DHT22;2209;48.982;8.406;2023-06-10T06:04:55;23.10;83.80
4390;DHT22;2209;48.982;8.406;2023-06-10T06:07:18;23.20;84.10
4390;DHT22;2209;48.982;8.406;2023-06-10T06:09:41;23.10;83.90
4390;DHT22;2209;48.982;8.406;2023-06-10T06:12:04;23.20;83.90
4390;DHT22;2209;48.982;8.406;2023-06-10T06:14:30;23.20;83.90
4390;DHT22;2209;48.982;8.406;2023-06-10T06:16:52;23.20;83.70
4390;DHT22;2209;48.982;8.406;2023-06-10T06:19:14;23.20;83.60
4390;DHT22;2209;48.982;8.406;2023-06-10T06:21:38;23.20;83.60
4390;DHT22;2209;48.982;8.406;2023-06-10T06:24:00;23.20;83.70
4390;DHT22;2209;48.982;8.406;2023-06-10T06:26:22;23.20;83.80
4390;DHT22;2209;48.982;8.406;2023-06-10T06:28:44;23.20;83.80
4390;DHT22;2209;48.982;8.406;2023-06-10T06:31:06;23.20;83.80
4390;DHT22;2209;48.982;8.406;2023-06-10T06:33:29;23.20;83.70
4390;DHT22;2209;48.982;8.406;2023-06-10T06:35:51;23.20;83.70
4390;DHT22;2209;48.982;8.406;2023-06-10T06:38:14;23.20;83.80
4390;DHT22;2209;48.982;8.406;2023-06-10T06:40:36;23.20;84.00
4390;DHT22;2209;48.982;8.406;2023-06-10T06:42:58;23.20;84.20
4390;DHT22;2209;48.982;8.406;2023-06-10T06:45:21;23.20;84.40
4390;DHT22;2209;48.982;8.406;2023-06-10T06:47:43;23.20;84.60
4390;DHT22;2209;48.982;8.406;2023-06-10T06:50:05;23.10;84.60
4390;DHT22;2209;48.982;8.406;2023-06-10T06:52:28;23.10;84.70
4390;DHT22;2209;48.982;8.406;2023-06-10T06:54:51;23.20;85.10
4390;DHT22;2209;48.982;8.406;2023-06-10T06:57:13;23.10;85.30
4390;DHT22;2209;48.982;8.406;2023-06-10T06:59:35;23.20;85.60
4390;DHT22;2209;48.982;8.406;2023-06-10T07:01:57;23.10;85.60
4390;DHT22;2209;48.982;8.406;2023-06-10T07:04:20;23.10;85.70
4390;DHT22;2209;48.982;8.406;2023-06-10T07:06:42;23.20;86.00
4390;DHT22;2209;48.982;8.406;2023-06-10T07:09:05;23.20;86.20
4390;DHT22;2209;48.982;8.406;2023-06-10T07:11:28;23.20;86.40
4390;DHT22;2209;48.982;8.406;2023-06-10T07:13:51;23.20;86.50
4390;DHT22;2209;48.982;8.406;2023-06-10T07:16:13;23.20;86.70
4390;DHT22;2209;48.982;8.406;2023-06-10T07:18:35;23.20;86.80
4390;DHT22;2209;48.982;8.406;2023-06-10T07:20:57;23.20;86.80
4390;DHT22;2209;48.982;8.406;2023-06-10T07:23:19;23.20;87.00
4390;DHT22;2209;48.982;8.406;2023-06-10T07:25:41;23.20;87.20
4390;DHT22;2209;48.982;8.406;2023-06-10T07:28:05;23.10;87.30
4390;DHT22;2209;48.982;8.406;2023-06-10T07:30:28;23.20;87.50
4390;DHT22;2209;48.982;8.406;2023-06-10T07:32:51;23.10;87.50
4390;DHT22;2209;48.982;8.406;2023-06-10T07:35:14;23.20;87.70
4390;DHT22;2209;48.982;8.406;2023-06-10T07:37:36;23.10;87.70
4390;DHT22;2209;48.982;8.406;2023-06-10T07:39:58;23.10;87.80
4390;DHT22;2209;48.982;8.406;2023-06-10T07:42:20;23.10;88.10
4390;DHT22;2209;48.982;8.406;2023-06-10T07:44:43;23.20;88.30
4390;DHT22;2209;48.982;8.406;2023-06-10T07:47:06;23.20;88.60
4390;DHT22;2209;48.982;8.406;2023-06-10T07:49:28;23.20;88.90
4390;DHT22;2209;48.982;8.406;2023-06-10T07:51:51;23.20;89.40
4390;DHT22;2209;48.982;8.406;2023-06-10T07:54:13;23.10;89.60
4390;DHT22;2209;48.982;8.406;2023-06-10T07:56:35;23.10;89.80
4390;DHT22;2209;48.982;8.406;2023-06-10T07:58:57;23.20;90.00
4390;DHT22;2209;48.982;8.406;2023-06-10T08:01:22;23.10;90.00
4390;DHT22;2209;48.982;8.406;2023-06-10T08:03:44;23.10;90.10
4390;DHT22;2209;48.982;8.406;2023-06-10T08:06:06;23.10;90.10
4390;DHT22;2209;48.982;8.406;2023-06-10T08:08:30;23.20;90.20
4390;DHT22;2209;48.982;8.406;2023-06-10T08:10:52;23.10;90.20
4390;DHT22;2209;48.982;8.406;2023-06-10T08:13:14;23.20;90.30
4390;DHT22;2209;48.982;8.406;2023-06-10T08:15:36;23.20;90.30
4390;DHT22;2209;48.982;8.406;2023-06-10T08:17:59;23.20;90.40
4390;DHT22;2209;48.982;8.406;2023-06-10T08:20:22;23.20;90.40
4390;DHT22;2209;48.982;8.406;2023-06-10T08:22:44;23.20;90.50
4390;DHT22;2209;48.982;8.406;2023-06-10T08:25:06;23.30;90.50
4390;DHT22;2209;48.982;8.406;2023-06-10T08:27:28;23.20;90.60
4390;DHT22;2209;48.982;8.406;2023-06-10T08:29:51;23.20;90.70
4390;DHT22;2209;48.982;8.406;2023-06-10T08:32:13;23.20;90.70
4390;DHT22;2209;48.982;8.406;2023-06-10T08:34:36;23.20;90.70
4390;DHT22;2209;48.982;8.406;2023-06-10T08:36:58;23.20;90.70
4390;DHT22;2209;48.982;8.406;2023-06-10T08:39:21;23.20;90.60
4390;DHT22;2209;48.982;8.406;2023-06-10T08:41:44;23.20;90.50
4390;DHT22;2209;48.982;8.406;2023-06-10T08:44:10;23.30;90.40
4390;DHT22;2209;48.982;8.406;2023-06-10T08:46:34;23.30;90.20
4390;DHT22;2209;48.982;8.406;2023-06-10T08:49:02;23.30;89.10
4390;DHT22;2209;48.982;8.406;2023-06-10T08:51:27;23.30;88.70
4390;DHT22;2209;48.982;8.406;2023-06-10T08:53:55;23.30;88.40
4390;DHT22;2209;48.982;8.406;2023-06-10T08:56:20;23.30;88.00
4390;DHT22;2209;48.982;8.406;2023-06-10T08:58:44;23.30;87.70
4390;DHT22;2209;48.982;8.406;2023-06-10T09:01:06;23.30;87.40
4390;DHT22;2209;48.982;8.406;2023-06-10T09:03:29;23.30;87.30
4390;DHT22;2209;48.982;8.406;2023-06-10T09:05:51;23.30;87.20
4390;DHT22;2209;48.982;8.406;2023-06-10T09:08:15;23.30;87.10
4390;DHT22;2209;48.982;8.406;2023-06-10T09:10:38;23.40;87.20
4390;DHT22;2209;48.982;8.406;2023-06-10T09:13:00;23.40;87.20
4390;DHT22;2209;48.982;8.406;2023-06-10T09:15:22;23.40;87.10
4390;DHT22;2209;48.982;8.406;2023-06-10T09:17:44;23.40;87.10
4390;DHT22;2209;48.982;8.406;2023-06-10T09:20:07;23.40;87.20
4390;DHT22;2209;48.982;8.406;2023-06-10T09:22:30;23.40;87.40
4390;DHT22;2209;48.982;8.406;2023-06-10T09:25:02;23.40;87.50
4390;DHT22;2209;48.982;8.406;2023-06-10T09:27:24;23.50;88.00
4390;DHT22;2209;48.982;8.406;2023-06-10T09:29:48;23.40;88.30
4390;DHT22;2209;48.982;8.406;2023-06-10T09:32:12;23.40;88.60
4390;DHT22;2209;48.982;8.406;2023-06-10T09:34:36;23.50;88.90
4390;DHT22;2209;48.982;8.406;2023-06-10T09:36:58;23.50;88.70
4390;DHT22;2209;48.982;8.406;2023-06-10T09:39:21;23.50;88.50
4390;DHT22;2209;48.982;8.406;2023-06-10T09:41:45;23.50;88.60
4390;DHT22;2209;48.982;8.406;2023-06-10T09:44:11;23.50;88.60
4390;DHT22;2209;48.982;8.406;2023-06-10T09:46:34;23.50;88.60
4390;DHT22;2209;48.982;8.406;2023-06-10T09:48:58;23.50;88.70
4390;DHT22;2209;48.982;8.406;2023-06-10T09:51:20;23.50;89.60
4390;DHT22;2209;48.982;8.406;2023-06-10T09:53:48;23.50;89.10
4390;DHT22;2209;48.982;8.406;2023-06-10T09:56:10;23.60;89.60
4390;DHT22;2209;48.982;8.406;2023-06-10T09:58:37;23.50;89.90
4390;DHT22;2209;48.982;8.406;2023-06-10T10:00:59;23.50;90.10
4390;DHT22;2209;48.982;8.406;2023-06-10T10:03:22;23.60;90.30
4390;DHT22;2209;48.982;8.406;2023-06-10T10:05:45;23.60;90.30
4390;DHT22;2209;48.982;8.406;2023-06-10T10:08:07;23.60;90.30
4390;DHT22;2209;48.982;8.406;2023-06-10T10:10:29;23.60;90.30
4390;DHT22;2209;48.982;8.406;2023-06-10T10:12:54;23.60;90.10
4390;DHT22;2209;48.982;8.406;2023-06-10T10:15:19;23.70;90.10
4390;DHT22;2209;48.982;8.406;2023-06-10T10:17:47;23.70;90.00
4390;DHT22;2209;48.982;8.406;2023-06-10T10:20:13;23.70;89.80
4390;DHT22;2209;48.982;8.406;2023-06-10T10:22:38;23.70;89.80
4390;DHT22;2209;48.982;8.406;2023-06-10T10:25:10;23.70;89.70
4390;DHT22;2209;48.982;8.406;2023-06-10T10:27:40;23.70;89.60
4390;DHT22;2209;48.982;8.406;2023-06-10T10:30:06;23.70;89.50
4390;DHT22;2209;48.982;8.406;2023-06-10T10:32:36;23.70;89.50
4390;DHT22;2209;48.982;8.406;2023-06-10T10:35:06;23.70;89.60
4390;DHT22;2209;48.982;8.406;2023-06-10T10:37:29;23.80;89.40
4390;DHT22;2209;48.982;8.406;2023-06-10T10:39:51;23.80;89.20
4390;DHT22;2209;48.982;8.406;2023-06-10T10:42:14;23.80;89.00
4390;DHT22;2209;48.982;8.406;2023-06-10T10:44:37;23.90;88.90
4390;DHT22;2209;48.982;8.406;2023-06-10T10:47:02;23.90;88.90
4390;DHT22;2209;48.982;8.406;2023-06-10T10:49:27;23.90;88.80
4390;DHT22;2209;48.982;8.406;2023-06-10T10:51:56;23.90;89.00
4390;DHT22;2209;48.982;8.406;2023-06-10T10:54:18;23.90;89.00
4390;DHT22;2209;48.982;8.406;2023-06-10T10:57:12;23.90;89.10
4390;DHT22;2209;48.982;8.406;2023-06-10T10:59:44;23.90;89.40
4390;DHT22;2209;48.982;8.406;2023-06-10T11:02:06;23.90;89.20
4390;DHT22;2209;48.982;8.406;2023-06-10T11:04:30;24.00;88.50
4390;DHT22;2209;48.982;8.406;2023-06-10T11:06:52;24.00;88.20
4390;DHT22;2209;48.982;8.406;2023-06-10T11:09:30;24.10;88.00
4390;DHT22;2209;48.982;8.406;2023-06-10T11:11:52;24.20;87.80
4390;DHT22;2209;48.982;8.406;2023-06-10T11:14:28;24.20;87.40
4390;DHT22;2209;48.982;8.406;2023-06-10T11:16:50;24.20;87.10
4390;DHT22;2209;48.982;8.406;2023-06-10T11:22:00;24.20;86.70
4390;DHT22;2209;48.982;8.406;2023-06-10T11:24:23;24.20;85.90
4390;DHT22;2209;48.982;8.406;2023-06-10T11:26:45;24.30;86.00
4390;DHT22;2209;48.982;8.406;2023-06-10T11:29:08;24.30;86.00
4390;DHT22;2209;48.982;8.406;2023-06-10T11:31:31;24.30;86.00
4390;DHT22;2209;48.982;8.406;2023-06-10T11:33:55;24.30;85.80
4390;DHT22;2209;48.982;8.406;2023-06-10T11:36:17;24.30;85.60
4390;DHT22;2209;48.982;8.406;2023-06-10T11:38:41;24.40;85.70
4390;DHT22;2209;48.982;8.406;2023-06-10T11:41:04;24.30;85.60
4390;DHT22;2209;48.982;8.406;2023-06-10T11:43:26;24.40;85.70
4390;DHT22;2209;48.982;8.406;2023-06-10T11:45:54;24.40;85.50
4390;DHT22;2209;48.982;8.406;2023-06-10T11:48:16;24.40;85.70
4390;DHT22;2209;48.982;8.406;2023-06-10T11:50:38;24.50;86.40
4390;DHT22;2209;48.982;8.406;2023-06-10T11:53:02;24.50;86.50
4390;DHT22;2209;48.982;8.406;2023-06-10T11:55:39;24.50;86.30
4390;DHT22;2209;48.982;8.406;2023-06-10T11:58:01;24.60;85.50
4390;DHT22;2209;48.982;8.406;2023-06-10T12:00:23;24.60;85.50
4390;DHT22;2209;48.982;8.406;2023-06-10T12:02:46;24.60;85.60
4390;DHT22;2209;48.982;8.406;2023-06-10T12:05:11;24.60;85.60
4390;DHT22;2209;48.982;8.406;2023-06-10T12:07:34;24.60;85.10
4390;DHT22;2209;48.982;8.406;2023-06-10T12:09:59;24.70;85.10
4390;DHT22;2209;48.982;8.406;2023-06-10T12:12:22;24.80;85.50
4390;DHT22;2209;48.982;8.406;2023-06-10T12:14:52;24.80;85.40
4390;DHT22;2209;48.982;8.406;2023-06-10T12:17:15;24.80;85.20
4390;DHT22;2209;48.982;8.406;2023-06-10T12:19:38;24.80;85.10
4390;DHT22;2209;48.982;8.406;2023-06-10T12:22:00;24.80;85.20
4390;DHT22;2209;48.982;8.406;2023-06-10T12:24:23;24.80;85.30
4390;DHT22;2209;48.982;8.406;2023-06-10T12:26:45;24.80;85.10
4390;DHT22;2209;48.982;8.406;2023-06-10T12:29:20;24.80;85.00
4390;DHT22;2209;48.982;8.406;2023-06-10T12:32:00;24.90;84.80
4390;DHT22;2209;48.982;8.406;2023-06-10T12:34:34;25.00;85.10
4390;DHT22;2209;48.982;8.406;2023-06-10T12:36:57;25.00;84.80
4390;DHT22;2209;48.982;8.406;2023-06-10T12:39:19;25.10;84.60
4390;DHT22;2209;48.982;8.406;2023-06-10T12:41:47;25.10;84.30
4390;DHT22;2209;48.982;8.406;2023-06-10T12:44:09;25.20;84.00
4390;DHT22;2209;48.982;8.406;2023-06-10T12:46:37;25.20;83.70
4390;DHT22;2209;48.982;8.406;2023-06-10T12:48:59;25.30;83.50
4390;DHT22;2209;48.982;8.406;2023-06-10T12:51:21;25.30;83.10
4390;DHT22;2209;48.982;8.406;2023-06-10T12:53:43;25.30;82.70
4390;DHT22;2209;48.982;8.406;2023-06-10T12:56:08;25.30;82.50
4390;DHT22;2209;48.982;8.406;2023-06-10T12:58:33;25.40;82.80
4390;DHT22;2209;48.982;8.406;2023-06-10T13:00:56;25.40;82.30
4390;DHT22;2209;48.982;8.406;2023-06-10T13:03:21;25.50;81.70
4390;DHT22;2209;48.982;8.406;2023-06-10T13:05:46;25.50;81.30
4390;DHT22;2209;48.982;8.406;2023-06-10T13:08:09;25.50;81.10
4390;DHT22;2209;48.982;8.406;2023-06-10T13:10:37;25.60;80.70
4390;DHT22;2209;48.982;8.406;2023-06-10T13:13:00;25.60;80.30
4390;DHT22;2209;48.982;8.406;2023-06-10T13:15:23;25.70;80.00
4390;DHT22;2209;48.982;8.406;2023-06-10T13:17:47;25.70;79.80
4390;DHT22;2209;48.982;8.406;2023-06-10T13:20:12;25.70;79.90
4390;DHT22;2209;48.982;8.406;2023-06-10T13:22:35;25.80;80.10
4390;DHT22;2209;48.982;8.406;2023-06-10T13:24:57;25.90;80.30
4390;DHT22;2209;48.982;8.406;2023-06-10T13:27:20;25.90;80.00
4390;DHT22;2209;48.982;8.406;2023-06-10T13:29:42;25.90;79.70
4390;DHT22;2209;48.982;8.406;2023-06-10T13:32:06;25.90;79.30
4390;DHT22;2209;48.982;8.406;2023-06-10T13:34:28;25.90;78.90
4390;DHT22;2209;48.982;8.406;2023-06-10T13:36:52;25.90;78.40
4390;DHT22;2209;48.982;8.406;2023-06-10T13:39:17;26.00;78.20
4390;DHT22;2209;48.982;8.406;2023-06-10T13:41:41;26.00;78.50
4390;DHT22;2209;48.982;8.406;2023-06-10T13:44:06;26.10;79.20
4390;DHT22;2209;48.982;8.406;2023-06-10T13:46:28;26.10;78.70
4390;DHT22;2209;48.982;8.406;2023-06-10T13:48:58;26.20;78.40
4390;DHT22;2209;48.982;8.406;2023-06-10T13:51:26;26.20;77.90
4390;DHT22;2209;48.982;8.406;2023-06-10T13:53:51;26.30;77.80
4390;DHT22;2209;48.982;8.406;2023-06-10T13:56:13;26.40;77.00
4390;DHT22;2209;48.982;8.406;2023-06-10T13:58:37;26.40;76.20
4390;DHT22;2209;48.982;8.406;2023-06-10T14:01:02;26.50;76.30
4390;DHT22;2209;48.982;8.406;2023-06-10T14:03:24;26.50;76.60
4390;DHT22;2209;48.982;8.406;2023-06-10T14:05:49;26.60;77.10
4390;DHT22;2209;48.982;8.406;2023-06-10T14:08:19;26.60;76.30
4390;DHT22;2209;48.982;8.406;2023-06-10T14:10:43;26.70;76.40
4390;DHT22;2209;48.982;8.406;2023-06-10T14:13:08;26.80;76.50
4390;DHT22;2209;48.982;8.406;2023-06-10T14:15:32;26.80;76.20
4390;DHT22;2209;48.982;8.406;2023-06-10T14:18:06;26.80;76.20
4390;DHT22;2209;48.982;8.406;2023-06-10T14:20:30;26.90;76.30
4390;DHT22;2209;48.982;8.406;2023-06-10T14:22:53;26.90;76.50
4390;DHT22;2209;48.982;8.406;2023-06-10T14:25:22;26.90;76.20
4390;DHT22;2209;48.982;8.406;2023-06-10T14:27:47;27.00;76.00
4390;DHT22;2209;48.982;8.406;2023-06-10T14:30:10;27.00;76.00
4390;DHT22;2209;48.982;8.406;2023-06-10T14:32:35;27.00;76.10
4390;DHT22;2209;48.982;8.406;2023-06-10T14:34:57;27.10;75.60
4390;DHT22;2209;48.982;8.406;2023-06-10T14:37:19;27.20;75.50
4390;DHT22;2209;48.982;8.406;2023-06-10T14:39:43;27.20;75.40
4390;DHT22;2209;48.982;8.406;2023-06-10T14:42:06;27.30;74.90
4390;DHT22;2209;48.982;8.406;2023-06-10T14:44:30;27.30;74.40
4390;DHT22;2209;48.982;8.406;2023-06-10T14:46:52;27.40;74.10
4390;DHT22;2209;48.982;8.406;2023-06-10T14:49:14;27.40;73.40
4390;DHT22;2209;48.982;8.406;2023-06-10T14:51:39;27.40;73.10
4390;DHT22;2209;48.982;8.406;2023-06-10T14:54:05;27.50;73.20
4390;DHT22;2209;48.982;8.406;2023-06-10T14:56:27;27.50;73.10
4390;DHT22;2209;48.982;8.406;2023-06-10T14:58:52;27.60;73.30
4390;DHT22;2209;48.982;8.406;2023-06-10T15:01:18;27.70;73.40
4390;DHT22;2209;48.982;8.406;2023-06-10T15:03:43;27.70;73.50
4390;DHT22;2209;48.982;8.406;2023-06-10T15:06:06;27.80;72.70
4390;DHT22;2209;48.982;8.406;2023-06-10T15:08:31;27.80;71.90
4390;DHT22;2209;48.982;8.406;2023-06-10T15:10:54;27.90;72.00
4390;DHT22;2209;48.982;8.406;2023-06-10T15:13:18;27.90;71.80
4390;DHT22;2209;48.982;8.406;2023-06-10T15:15:43;28.00;71.90
4390;DHT22;2209;48.982;8.406;2023-06-10T15:18:07;28.00;71.80
4390;DHT22;2209;48.982;8.406;2023-06-10T15:20:30;28.00;71.40
4390;DHT22;2209;48.982;8.406;2023-06-10T15:22:52;28.10;71.50
4390;DHT22;2209;48.982;8.406;2023-06-10T15:25:15;28.10;71.60
4390;DHT22;2209;48.982;8.406;2023-06-10T15:27:38;28.10;71.30
4390;DHT22;2209;48.982;8.406;2023-06-10T15:30:01;28.20;70.60
4390;DHT22;2209;48.982;8.406;2023-06-10T15:32:24;28.20;70.80
4390;DHT22;2209;48.982;8.406;2023-06-10T15:34:48;28.30;70.30
4390;DHT22;2209;48.982;8.406;2023-06-10T15:37:11;28.40;70.10
4390;DHT22;2209;48.982;8.406;2023-06-10T15:39:34;28.40;71.50